createdAt,value
2023-05-01T00:00:18.144Z,53.9444
2023-05-01T00:01:20.714Z,53.8039
2023-05-01T00:02:22.937Z,54.4709
2023-05-01T00:03:25.385Z,54.6396
2023-05-01T00:04:27.514Z,54.9832
2023-05-01T00:05:29.851Z,54.7944
2023-05-01T00:06:32.260Z,54.3294
2023-05-01T00:07:34.556Z,54.3151
2023-05-01T00:08:36.871Z,54.4632
2023-05-01T00:09:39.238Z,53.3440
2023-05-01T00:10:41.574Z,52.7147
2023-05-01T00:11:43.899Z,53.9159
2023-05-01T00:12:46.384Z,52.8489
2023-05-01T00:13:48.588Z,54.7432
2023-05-01T00:14:50.909Z,55.2377
2023-05-01T00:15:53.427Z,54.6158
2023-05-01T00:16:55.773Z,54.4656
2023-05-01T00:17:57.950Z,54.5155
2023-05-01T00:19:00.266Z,54.5641
2023-05-01T00:20:02.618Z,54.9746
2023-05-01T00:21:04.948Z,55.3569
2023-05-01T00:22:07.326Z,55.9812
2023-05-01T00:23:10.231Z,55.9296
2023-05-01T00:24:11.995Z,55.8164
2023-05-01T00:25:14.309Z,56.3367
2023-05-01T00:26:16.651Z,57.3844
2023-05-01T00:27:19.195Z,57.5218
2023-05-01T00:28:21.339Z,57.0428
2023-05-01T00:29:23.711Z,55.6152
2023-05-01T00:30:26.026Z,55.3041
2023-05-01T00:31:29.877Z,57.3391
2023-05-01T00:32:30.719Z,59.1514
2023-05-01T00:33:33.784Z,59.1329
2023-05-01T00:34:35.404Z,57.7410
2023-05-01T00:35:37.760Z,57.6390
2023-05-01T00:36:40.068Z,58.1934
2023-05-01T00:37:42.736Z,57.7430
2023-05-01T00:38:44.725Z,58.0411
2023-05-01T00:39:47.160Z,57.4872
2023-05-01T00:40:49.426Z,57.1985
2023-05-01T00:41:52.272Z,58.6277
2023-05-01T00:42:54.121Z,58.6230
2023-05-01T00:43:56.418Z,57.8801
2023-05-01T00:44:58.759Z,57.7477
2023-05-01T00:46:01.149Z,57.1698
2023-05-01T00:47:03.511Z,57.3917
2023-05-01T00:48:07.712Z,58.0688
2023-05-01T00:49:08.116Z,58.4273
2023-05-01T00:50:10.455Z,59.2987
2023-05-01T00:51:12.793Z,58.8519
2023-05-01T00:52:15.193Z,59.8004
2023-05-01T00:53:17.631Z,60.6109
2023-05-01T00:54:19.790Z,61.1453
2023-05-01T00:55:22.153Z,61.6680
2023-05-01T00:56:24.469Z,62.2657
2023-05-01T00:57:26.820Z,62.7714
2023-05-01T00:58:29.144Z,62.6953
2023-05-01T00:59:31.768Z,62.6128
2023-05-01T01:00:34.493Z,62.3505
2023-05-01T01:01:36.180Z,62.8834
2023-05-01T01:02:38.629Z,62.8061
2023-05-01T01:03:40.827Z,61.9035
2023-05-01T01:04:43.168Z,62.7328
2023-05-01T01:05:45.534Z,62.8232
2023-05-01T01:06:48.367Z,63.1771
2023-05-01T01:07:50.174Z,62.9896
2023-05-01T01:08:52.561Z,62.8046
2023-05-01T01:09:55.129Z,62.3510
2023-05-01T01:10:57.221Z,61.8215
2023-05-01T01:11:59.569Z,62.1234
2023-05-01T01:13:01.901Z,62.1725
2023-05-01T01:14:04.279Z,62.3782
2023-05-01T01:15:06.747Z,61.9317
2023-05-01T01:16:08.986Z,62.4616
2023-05-01T01:17:11.433Z,63.0998
2023-05-01T01:18:13.617Z,62.8298
2023-05-01T01:19:15.973Z,63.0238
2023-05-01T01:20:18.206Z,63.3456
2023-05-01T01:21:20.564Z,63.5418
2023-05-01T01:22:23.107Z,63.5907
2023-05-01T01:23:25.331Z,63.8740
2023-05-01T01:24:27.576Z,63.9968
2023-05-01T01:25:29.900Z,64.0993
2023-05-01T01:26:32.332Z,64.3892
2023-05-01T01:27:34.655Z,64.3863
2023-05-01T01:28:36.938Z,62.7454
2023-05-01T01:29:39.256Z,61.8010
2023-05-01T01:30:41.633Z,61.1548
2023-05-01T01:31:44.055Z,61.9210
2023-05-01T01:32:46.367Z,62.8896
2023-05-01T01:33:48.563Z,63.5808
2023-05-01T01:34:50.949Z,63.6557
2023-05-01T01:35:53.271Z,63.5229
2023-05-01T01:36:55.674Z,63.7256
2023-05-01T01:37:57.923Z,64.0381
2023-05-01T01:39:00.277Z,63.6820
2023-05-01T01:40:02.686Z,63.0807
2023-05-01T01:41:04.950Z,63.1669
2023-05-01T01:42:07.280Z,63.1302
2023-05-01T01:43:09.810Z,63.3695
2023-05-01T01:44:12.010Z,62.8546
2023-05-01T01:45:14.316Z,62.7698
2023-05-01T01:46:16.629Z,63.2490
2023-05-01T01:47:18.986Z,63.6793
2023-05-01T01:48:21.290Z,63.1899
2023-05-01T01:49:23.735Z,63.1568
2023-05-01T01:50:26.091Z,63.2683
2023-05-01T01:51:28.490Z,63.1878
2023-05-01T01:52:30.699Z,63.3934
2023-05-01T01:53:32.974Z,63.2708
2023-05-01T01:54:35.352Z,63.3541
2023-05-01T01:55:37.671Z,63.0838
2023-05-01T01:56:39.954Z,62.0332
2023-05-01T01:57:42.349Z,62.2335
2023-05-01T01:58:44.654Z,62.2836
2023-05-01T01:59:47.003Z,62.5943
2023-05-01T02:00:49.402Z,62.6182
2023-05-01T02:01:51.889Z,62.7990
2023-05-01T02:02:54.112Z,62.7962
2023-05-01T02:03:56.630Z,62.9233
2023-05-01T02:04:58.768Z,63.1210
2023-05-01T02:06:01.100Z,63.3499
2023-05-01T02:07:03.494Z,63.5722
2023-05-01T02:08:05.705Z,63.6472
2023-05-01T02:09:08.039Z,63.0630
2023-05-01T02:10:10.596Z,62.0885
2023-05-01T02:11:12.823Z,61.8528
2023-05-01T02:12:15.026Z,61.9875
2023-05-01T02:13:17.476Z,61.5800
2023-05-01T02:14:19.667Z,61.5398
2023-05-01T02:15:22.077Z,61.8154
2023-05-01T02:16:24.678Z,62.0038
2023-05-01T02:17:26.812Z,62.1480
2023-05-01T02:18:29.097Z,62.3037
2023-05-01T02:19:31.394Z,62.8596
2023-05-01T02:20:33.952Z,62.7091
2023-05-01T02:21:36.070Z,62.7544
2023-05-01T02:22:38.998Z,62.8830
2023-05-01T02:23:41.198Z,63.1378
2023-05-01T02:24:43.094Z,63.6366
2023-05-01T02:25:45.368Z,62.7840
2023-05-01T02:26:47.938Z,63.5528
2023-05-01T02:27:50.063Z,63.4190
2023-05-01T02:28:52.504Z,63.2178
2023-05-01T02:29:55.440Z,63.3762
2023-05-01T02:30:57.169Z,63.3022
2023-05-01T02:31:59.565Z,63.6367
2023-05-01T02:33:01.970Z,63.7162
2023-05-01T02:34:04.160Z,63.8079
2023-05-01T02:35:06.598Z,63.7105
2023-05-01T02:36:08.857Z,62.8990
2023-05-01T02:37:11.332Z,62.4930
2023-05-01T02:38:13.508Z,62.5963
2023-05-01T02:39:15.969Z,62.4391
2023-05-01T02:40:18.217Z,62.6252
2023-05-01T02:41:20.518Z,62.3510
2023-05-01T02:42:22.915Z,61.9725
2023-05-01T02:43:25.466Z,62.1226
2023-05-01T02:44:27.570Z,61.9298
2023-05-01T02:45:29.989Z,61.8032
2023-05-01T02:46:32.213Z,62.1251
2023-05-01T02:47:34.618Z,62.4513
2023-05-01T02:48:36.904Z,62.2174
2023-05-01T02:49:39.233Z,62.4881
2023-05-01T02:50:41.645Z,63.1103
2023-05-01T02:51:43.963Z,62.9149
2023-05-01T02:52:46.240Z,63.1186
2023-05-01T02:53:48.585Z,63.4558
2023-05-01T02:54:50.972Z,63.6269
2023-05-01T02:55:53.264Z,62.3552
2023-05-01T02:56:55.606Z,61.7826
2023-05-01T02:57:57.932Z,62.3652
2023-05-01T02:59:00.508Z,62.3489
2023-05-01T03:00:02.686Z,62.3648
2023-05-01T03:01:04.988Z,62.8823
2023-05-01T03:02:07.284Z,63.4375
2023-05-01T03:03:09.700Z,63.3252
2023-05-01T03:04:12.029Z,62.8848
2023-05-01T03:05:14.307Z,62.6152
2023-05-01T03:06:16.759Z,62.4920
2023-05-01T03:07:18.995Z,62.5994
2023-05-01T03:08:21.325Z,62.4381
2023-05-01T03:09:23.682Z,62.3323
2023-05-01T03:10:26.027Z,62.3370
2023-05-01T03:11:28.473Z,62.4468
2023-05-01T03:12:30.744Z,62.4899
2023-05-01T03:13:33.031Z,62.6427
2023-05-01T03:14:35.371Z,62.5570
2023-05-01T03:15:37.721Z,62.5994
2023-05-01T03:16:40.140Z,62.6421
2023-05-01T03:17:42.467Z,62.5557
2023-05-01T03:18:44.719Z,62.5454
2023-05-01T03:19:47.124Z,62.7802
2023-05-01T03:20:49.395Z,62.4826
2023-05-01T03:21:51.755Z,62.8922
2023-05-01T03:22:54.092Z,62.7465
2023-05-01T03:23:56.414Z,62.4232
2023-05-01T03:24:58.757Z,62.3338
2023-05-01T03:26:01.099Z,62.3631
2023-05-01T03:27:03.458Z,62.6345
2023-05-01T03:28:05.763Z,63.0159
2023-05-01T03:29:08.109Z,62.9780
2023-05-01T03:30:10.431Z,63.2807
2023-05-01T03:31:12.774Z,63.3746
2023-05-01T03:32:15.248Z,64.0002
2023-05-01T03:33:17.516Z,63.8162
2023-05-01T03:34:19.758Z,63.8087
2023-05-01T03:35:22.138Z,63.8040
2023-05-01T03:36:24.437Z,63.6690
2023-05-01T03:37:26.801Z,63.6742
2023-05-01T03:38:29.130Z,63.6789
2023-05-01T03:39:31.454Z,63.4209
2023-05-01T03:40:33.794Z,63.3082
2023-05-01T03:41:36.125Z,63.4422
2023-05-01T03:42:38.489Z,63.7203
2023-05-01T03:43:40.807Z,63.8021
2023-05-01T03:44:43.140Z,63.8756
2023-05-01T03:45:45.513Z,63.9429
2023-05-01T03:46:47.837Z,63.9660
2023-05-01T03:47:50.220Z,63.6426
2023-05-01T03:48:52.502Z,63.6288
2023-05-01T03:49:54.920Z,63.6718
2023-05-01T03:50:57.193Z,63.4696
2023-05-01T03:51:59.495Z,63.1806
2023-05-01T03:53:01.923Z,63.2466
2023-05-01T03:54:04.210Z,63.4307
2023-05-01T03:55:06.518Z,63.6368
2023-05-01T03:56:08.868Z,63.7075
2023-05-01T03:57:11.201Z,64.1852
2023-05-01T03:58:13.552Z,64.2633
2023-05-01T03:59:15.928Z,64.0406
2023-05-01T04:00:18.230Z,64.1429
2023-05-01T04:01:20.551Z,64.1187
2023-05-01T04:02:22.986Z,64.1556
2023-05-01T04:03:25.382Z,63.7698
2023-05-01T04:04:27.589Z,63.6024
2023-05-01T04:05:29.912Z,63.7675
2023-05-01T04:06:32.386Z,63.9135
2023-05-01T04:07:34.587Z,63.9224
2023-05-01T04:08:36.958Z,63.6953
2023-05-01T04:09:39.254Z,63.9597
2023-05-01T04:10:41.675Z,64.0299
2023-05-01T04:11:43.939Z,64.3330
2023-05-01T04:12:46.272Z,64.4132
2023-05-01T04:13:48.608Z,64.3495
2023-05-01T04:14:50.942Z,64.5126
2023-05-01T04:15:53.332Z,64.4596
2023-05-01T04:16:55.623Z,64.4648
2023-05-01T04:17:58.030Z,64.7947
2023-05-01T04:19:00.297Z,65.0726
2023-05-01T04:20:02.639Z,65.1063
2023-05-01T04:21:04.982Z,64.6816
2023-05-01T04:22:07.315Z,64.3345
2023-05-01T04:23:09.690Z,64.3524
2023-05-01T04:24:11.991Z,64.3198
2023-05-01T04:25:14.383Z,64.1159
2023-05-01T04:26:16.671Z,64.4374
2023-05-01T04:27:19.032Z,64.5692
2023-05-01T04:28:21.361Z,64.4512
2023-05-01T04:29:24.613Z,63.9045
2023-05-01T04:30:26.103Z,63.7039
2023-05-01T04:31:28.512Z,63.6939
2023-05-01T04:32:30.745Z,63.8719
2023-05-01T04:33:33.021Z,63.9241
2023-05-01T04:34:35.418Z,63.5102
2023-05-01T04:35:37.724Z,63.1481
2023-05-01T04:36:40.198Z,63.2046
2023-05-01T04:37:42.371Z,62.8327
2023-05-01T04:38:44.675Z,62.9343
2023-05-01T04:39:47.023Z,62.7575
2023-05-01T04:40:49.495Z,62.9389
2023-05-01T04:41:51.737Z,63.2850
2023-05-01T04:42:54.022Z,63.1692
2023-05-01T04:43:56.367Z,62.2717
2023-05-01T04:44:58.708Z,62.2405
2023-05-01T04:46:01.063Z,62.4159
2023-05-01T04:47:03.469Z,62.4565
2023-05-01T04:48:05.791Z,62.2116
2023-05-01T04:49:08.060Z,62.2554
2023-05-01T04:50:10.415Z,62.5757
2023-05-01T04:51:12.721Z,62.9195
2023-05-01T04:52:15.112Z,63.8158
2023-05-01T04:53:17.525Z,63.7755
2023-05-01T04:54:19.736Z,62.6669
2023-05-01T04:55:22.175Z,62.5631
2023-05-01T04:56:24.411Z,63.2007
2023-05-01T04:57:26.754Z,63.5069
2023-05-01T04:58:29.158Z,63.9514
2023-05-01T04:59:31.553Z,64.2479
2023-05-01T05:00:33.885Z,64.2940
2023-05-01T05:01:36.177Z,63.9245
2023-05-01T05:02:38.608Z,63.8428
2023-05-01T05:03:40.876Z,64.0501
2023-05-01T05:04:43.144Z,63.8784
2023-05-01T05:05:45.603Z,63.7030
2023-05-01T05:06:47.894Z,63.6128
2023-05-01T05:07:50.155Z,63.6943
2023-05-01T05:08:52.479Z,63.9081
2023-05-01T05:09:55.058Z,63.5108
2023-05-01T05:10:57.871Z,63.5206
2023-05-01T05:11:59.678Z,63.9154
2023-05-01T05:13:01.858Z,64.1112
2023-05-01T05:14:04.272Z,63.6259
2023-05-01T05:15:06.667Z,62.8095
2023-05-01T05:16:08.976Z,63.0233
2023-05-01T05:17:11.380Z,62.9462
2023-05-01T05:18:13.642Z,63.0954
2023-05-01T05:19:15.852Z,62.6125
2023-05-01T05:20:18.257Z,62.7488
2023-05-01T05:21:20.581Z,62.3317
2023-05-01T05:22:22.866Z,62.1858
2023-05-01T05:23:25.229Z,62.4242
2023-05-01T05:24:27.588Z,62.8650
2023-05-01T05:25:29.882Z,63.5168
2023-05-01T05:26:32.257Z,63.4130
2023-05-01T05:27:34.628Z,64.0667
2023-05-01T05:28:36.911Z,63.6356
2023-05-01T05:29:39.346Z,63.5454
2023-05-01T05:30:41.561Z,63.8018
2023-05-01T05:31:43.950Z,63.9324
2023-05-01T05:32:46.296Z,63.7220
2023-05-01T05:33:48.666Z,63.7025
2023-05-01T05:34:51.125Z,63.0817
2023-05-01T05:35:53.244Z,62.9124
2023-05-01T05:36:55.716Z,62.6139
2023-05-01T05:37:57.965Z,62.6199
2023-05-01T05:39:00.337Z,62.7609
2023-05-01T05:40:02.623Z,62.2888
2023-05-01T05:41:04.950Z,62.2885
2023-05-01T05:42:07.298Z,62.2544
2023-05-01T05:43:09.674Z,62.4080
2023-05-01T05:44:12.167Z,62.5462
2023-05-01T05:45:14.468Z,62.5115
2023-05-01T05:46:16.795Z,62.7343
2023-05-01T05:47:19.161Z,63.1180
2023-05-01T05:48:21.505Z,62.6912
2023-05-01T05:49:23.732Z,61.9873
2023-05-01T05:50:26.059Z,61.7551
2023-05-01T05:51:28.560Z,61.9170
2023-05-01T05:52:30.685Z,62.5998
2023-05-01T05:53:33.061Z,62.5843
2023-05-01T05:54:35.376Z,62.5313
2023-05-01T05:55:37.723Z,62.2282
2023-05-01T05:56:40.050Z,61.2235
2023-05-01T05:57:42.515Z,61.1062
2023-05-01T05:58:44.733Z,61.0372
2023-05-01T05:59:47.067Z,61.3216
2023-05-01T06:00:49.434Z,61.6758
2023-05-01T06:01:51.753Z,61.7431
2023-05-01T06:02:54.142Z,61.6811
2023-05-01T06:03:56.562Z,62.2706
2023-05-01T06:04:58.783Z,61.7538
2023-05-01T06:06:01.462Z,61.3759
2023-05-01T06:07:03.481Z,60.8903
2023-05-01T06:08:05.818Z,60.9684
2023-05-01T06:09:08.131Z,61.3140
2023-05-01T06:10:10.467Z,61.4870
2023-05-01T06:11:12.857Z,62.3115
2023-05-01T06:12:15.170Z,62.0911
2023-05-01T06:13:17.526Z,61.5493
2023-05-01T06:14:19.851Z,61.8430
2023-05-01T06:15:22.356Z,61.7122
2023-05-01T06:16:24.614Z,60.7714
2023-05-01T06:17:26.871Z,61.0156
2023-05-01T06:18:29.182Z,61.7609
2023-05-01T06:19:31.569Z,62.0800
2023-05-01T06:20:33.863Z,62.5870
2023-05-01T06:21:36.358Z,62.8670
2023-05-01T06:22:38.582Z,63.4787
2023-05-01T06:23:40.873Z,63.1200
2023-05-01T06:24:43.220Z,63.5612
2023-05-01T06:25:45.568Z,62.5550
2023-05-01T06:26:47.898Z,61.4624
2023-05-01T06:27:50.375Z,62.0514
2023-05-01T06:28:52.598Z,62.7468
2023-05-01T06:29:55.144Z,62.8692
2023-05-01T06:30:57.254Z,62.1734
2023-05-01T06:31:59.797Z,62.3031
2023-05-01T06:33:01.941Z,61.7952
2023-05-01T06:34:04.266Z,62.2285
2023-05-01T06:35:06.682Z,62.2139
2023-05-01T06:36:09.233Z,62.6636
2023-05-01T06:37:11.358Z,62.8806
2023-05-01T06:38:13.832Z,62.6050
2023-05-01T06:39:16.014Z,61.7014
2023-05-01T06:40:18.461Z,61.7586
2023-05-01T06:41:20.775Z,61.2712
2023-05-01T06:42:23.211Z,61.8779
2023-05-01T06:43:25.387Z,62.4328
2023-05-01T06:44:27.724Z,62.2910
2023-05-01T06:45:30.156Z,62.2263
2023-05-01T06:46:32.442Z,62.1110
2023-05-01T06:47:34.916Z,62.3028
2023-05-01T06:48:37.271Z,62.2579
2023-05-01T06:49:39.503Z,61.4003
2023-05-01T06:50:41.752Z,61.5220
2023-05-01T06:51:44.145Z,61.7914
2023-05-01T06:52:46.419Z,61.1086
2023-05-01T06:53:48.834Z,60.4375
2023-05-01T06:54:51.099Z,60.9652
2023-05-01T06:55:53.426Z,61.4557
2023-05-01T06:56:55.968Z,61.4324
2023-05-01T06:57:59.757Z,61.4563
2023-05-01T06:59:00.467Z,61.1566
2023-05-01T07:00:02.844Z,60.8242
2023-05-01T07:01:05.152Z,60.9384
2023-05-01T07:02:07.548Z,60.8294
2023-05-01T07:03:09.886Z,60.2624
2023-05-01T07:04:12.298Z,60.5725
2023-05-01T07:05:14.515Z,61.3213
2023-05-01T07:06:16.936Z,62.1180
2023-05-01T07:07:19.159Z,62.2453
2023-05-01T07:08:21.534Z,61.7227
2023-05-01T07:09:23.872Z,61.4386
2023-05-01T07:10:26.238Z,61.8779
2023-05-01T07:11:28.552Z,61.5441
2023-05-01T07:12:30.845Z,60.5689
2023-05-01T07:13:33.215Z,61.0718
2023-05-01T07:14:35.586Z,61.6506
2023-05-01T07:15:37.867Z,60.8883
2023-05-01T07:16:40.328Z,60.4516
2023-05-01T07:17:42.567Z,60.2153
2023-05-01T07:18:44.956Z,60.2934
2023-05-01T07:19:47.250Z,60.9745
2023-05-01T07:20:49.601Z,61.4061
2023-05-01T07:21:51.879Z,61.3760
2023-05-01T07:22:54.245Z,60.7040
2023-05-01T07:23:56.585Z,60.9858
2023-05-01T07:24:58.933Z,60.7151
2023-05-01T07:26:01.255Z,61.6641
2023-05-01T07:27:03.594Z,62.4044
2023-05-01T07:28:05.906Z,61.4265
2023-05-01T07:29:08.243Z,61.9027
2023-05-01T07:30:10.580Z,61.5771
2023-05-01T07:31:12.933Z,61.3372
2023-05-01T07:32:15.345Z,61.3758
2023-05-01T07:33:17.644Z,62.0823
2023-05-01T07:34:19.969Z,62.6783
2023-05-01T07:35:22.264Z,62.6050
2023-05-01T07:36:24.730Z,62.8510
2023-05-01T07:37:27.011Z,62.8510
2023-05-01T07:38:29.247Z,62.6008
2023-05-01T07:39:31.575Z,62.8433
2023-05-01T07:40:33.923Z,61.8836
2023-05-01T07:41:36.272Z,62.7665
2023-05-01T07:42:38.596Z,62.1438
2023-05-01T07:43:40.917Z,61.0227
2023-05-01T07:44:43.256Z,60.8858
2023-05-01T07:45:45.717Z,60.9543
2023-05-01T07:46:47.929Z,61.4436
2023-05-01T07:47:50.348Z,62.2160
2023-05-01T07:48:52.613Z,62.0822
2023-05-01T07:49:55.334Z,62.5946
2023-05-01T07:50:57.367Z,61.8705
2023-05-01T07:51:59.618Z,60.9470
2023-05-01T07:53:02.156Z,60.1171
2023-05-01T07:54:04.395Z,61.0148
2023-05-01T07:55:06.620Z,60.3887
2023-05-01T07:56:09.078Z,61.4051
2023-05-01T07:57:11.297Z,61.5379
2023-05-01T07:58:13.678Z,61.4702
2023-05-01T07:59:15.968Z,61.6847
2023-05-01T08:00:18.303Z,62.0239
2023-05-01T08:01:20.643Z,61.3643
2023-05-01T08:02:23.183Z,61.5882
2023-05-01T08:03:25.494Z,62.6823
2023-05-01T08:04:27.662Z,61.7174
2023-05-01T08:05:30.035Z,60.5995
2023-05-01T08:06:32.402Z,60.9450
2023-05-01T08:07:34.660Z,61.6692
2023-05-01T08:08:37.037Z,61.3340
2023-05-01T08:09:39.332Z,61.8226
2023-05-01T08:10:41.675Z,62.4070
2023-05-01T08:11:44.007Z,62.6750
2023-05-01T08:12:46.405Z,62.2438
2023-05-01T08:13:48.689Z,62.3851
2023-05-01T08:14:51.021Z,61.2743
2023-05-01T08:15:53.381Z,60.2402
2023-05-01T08:16:55.726Z,60.6459
2023-05-01T08:17:58.075Z,60.9647
2023-05-01T08:19:00.420Z,61.6534
2023-05-01T08:20:02.716Z,62.0470
2023-05-01T08:21:05.110Z,62.5358
2023-05-01T08:22:07.412Z,61.7074
2023-05-01T08:23:09.730Z,59.4664
2023-05-01T08:24:12.069Z,61.9540
2023-05-01T08:25:14.391Z,64.3145
2023-05-01T08:26:16.730Z,62.7240
2023-05-01T08:27:19.068Z,60.7577
2023-05-01T08:28:21.524Z,59.2579
2023-05-01T08:29:23.763Z,57.6287
2023-05-01T08:30:26.125Z,59.4721
2023-05-01T08:31:28.474Z,60.0150
2023-05-01T08:32:30.796Z,61.8162
2023-05-01T08:33:33.074Z,62.6446
2023-05-01T08:34:35.422Z,64.1316
2023-05-01T08:35:37.898Z,62.7955
2023-05-01T08:36:40.237Z,62.7579
2023-05-01T08:37:42.453Z,58.9311
2023-05-01T08:38:44.749Z,59.4041
2023-05-01T08:39:47.102Z,59.0424
2023-05-01T08:40:49.420Z,57.8054
2023-05-01T08:41:51.748Z,60.3357
2023-05-01T08:42:54.108Z,62.1700
2023-05-01T08:43:56.421Z,60.4967
2023-05-01T08:44:58.772Z,60.6520
2023-05-01T08:46:01.111Z,61.1961
2023-05-01T08:47:03.509Z,61.2425
2023-05-01T08:48:05.788Z,58.2476
2023-05-01T08:49:08.300Z,57.8653
2023-05-01T08:50:10.437Z,58.5109
2023-05-01T08:51:12.834Z,59.3594
2023-05-01T08:52:15.090Z,61.8429
2023-05-01T08:53:17.436Z,62.5757
2023-05-01T08:54:19.769Z,62.5226
2023-05-01T08:55:22.168Z,62.1146
2023-05-01T08:56:24.528Z,61.7592
2023-05-01T08:57:26.755Z,62.0902
2023-05-01T08:58:29.249Z,62.5495
2023-05-01T08:59:31.442Z,63.0437
2023-05-01T09:00:33.779Z,61.2386
2023-05-01T09:01:36.137Z,60.6550
2023-05-01T09:02:38.516Z,60.8145
2023-05-01T09:03:40.949Z,59.9715
2023-05-01T09:04:43.196Z,58.9596
2023-05-01T09:05:45.480Z,59.4057
2023-05-01T09:06:47.865Z,59.4949
2023-05-01T09:07:50.105Z,59.5269
2023-05-01T09:08:52.446Z,62.1149
2023-05-01T09:09:55.042Z,62.1451
2023-05-01T09:10:57.152Z,63.0232
2023-05-01T09:11:59.488Z,63.1836
2023-05-01T09:13:01.821Z,60.6999
2023-05-01T09:14:04.144Z,60.5830
2023-05-01T09:15:06.475Z,61.3067
2023-05-01T09:16:08.964Z,59.5521
2023-05-01T09:17:11.141Z,58.7714
2023-05-01T09:18:13.534Z,59.8745
2023-05-01T09:19:15.791Z,59.2225
2023-05-01T09:20:18.151Z,59.8909
2023-05-01T09:21:20.481Z,61.0881
2023-05-01T09:22:22.807Z,60.8467
2023-05-01T09:23:25.154Z,61.7159
2023-05-01T09:24:27.498Z,62.2991
2023-05-01T09:25:29.816Z,60.7516
2023-05-01T09:26:32.165Z,60.4776
2023-05-01T09:27:34.505Z,60.0962
2023-05-01T09:28:36.856Z,60.8430
2023-05-01T09:29:39.228Z,60.4590
2023-05-01T09:30:41.478Z,61.3917
2023-05-01T09:31:43.892Z,62.8643
2023-05-01T09:32:46.187Z,62.9403
2023-05-01T09:33:48.532Z,63.7784
2023-05-01T09:34:50.907Z,62.7048
2023-05-01T09:35:53.251Z,61.5543
2023-05-01T09:36:55.559Z,59.8626
2023-05-01T09:37:57.859Z,61.5845
2023-05-01T09:39:00.176Z,59.8247
2023-05-01T09:40:02.541Z,59.7685
2023-05-01T09:41:04.841Z,61.9148
2023-05-01T09:42:07.257Z,62.9409
2023-05-01T09:43:11.220Z,61.0561
2023-05-01T09:44:11.869Z,60.8678
2023-05-01T09:45:14.292Z,62.7235
2023-05-01T09:46:16.657Z,63.2806
2023-05-01T09:47:18.876Z,62.9074
2023-05-01T09:48:21.198Z,61.5230
2023-05-01T09:49:23.575Z,59.3771
2023-05-01T09:50:25.891Z,59.4991
2023-05-01T09:51:28.222Z,60.1126
2023-05-01T09:52:30.567Z,59.2504
2023-05-01T09:53:32.876Z,58.8320
2023-05-01T09:54:35.212Z,58.3336
2023-05-01T09:55:37.546Z,58.1949
2023-05-01T09:56:39.881Z,58.1453
2023-05-01T09:57:42.266Z,58.2710
2023-05-01T09:58:44.637Z,59.0656
2023-05-01T09:59:46.890Z,61.1390
2023-05-01T10:00:49.268Z,63.0947
2023-05-01T10:01:51.634Z,61.5803
2023-05-01T10:02:54.092Z,61.7593
2023-05-01T10:03:56.680Z,62.0439
2023-05-01T10:04:58.755Z,60.4893
2023-05-01T10:06:01.184Z,60.1596
2023-05-01T10:07:03.280Z,57.9912
2023-05-01T10:08:05.605Z,60.1314
2023-05-01T10:09:07.930Z,62.9737
2023-05-01T10:10:10.256Z,61.9460
2023-05-01T10:11:12.604Z,58.4524
2023-05-01T10:12:14.930Z,58.3176
2023-05-01T10:13:17.303Z,60.0873
2023-05-01T10:14:19.604Z,61.9916
2023-05-01T10:15:26.323Z,60.5710
2023-05-01T10:16:24.327Z,60.1334
2023-05-01T10:17:26.664Z,61.1982
2023-05-01T10:18:28.991Z,59.7217
2023-05-01T10:19:31.306Z,58.3932
2023-05-01T10:20:33.645Z,58.4848
2023-05-01T10:21:35.962Z,58.1086
2023-05-01T10:22:38.306Z,60.1818
2023-05-01T10:23:40.636Z,59.7062
2023-05-01T10:24:42.985Z,58.4833
2023-05-01T10:25:45.328Z,57.0117
2023-05-01T10:26:47.639Z,57.7837
2023-05-01T10:27:49.976Z,57.7836
2023-05-01T10:28:52.312Z,56.6736
2023-05-01T10:29:54.996Z,58.7981
2023-05-01T10:30:57.038Z,59.0892
2023-05-01T10:31:59.399Z,59.9671
2023-05-01T10:33:01.678Z,56.9826
2023-05-01T10:34:03.999Z,56.0932
2023-05-01T10:35:06.355Z,56.8594
2023-05-01T10:36:08.679Z,58.4897
2023-05-01T10:37:11.000Z,59.7232
2023-05-01T10:38:13.361Z,58.7053
2023-05-01T10:39:15.678Z,57.1039
2023-05-01T10:40:18.095Z,56.4024
2023-05-01T10:41:20.430Z,56.7412
2023-05-01T10:42:23.003Z,57.0509
2023-05-01T10:43:25.097Z,56.1777
2023-05-01T10:44:27.460Z,56.1561
2023-05-01T10:45:29.782Z,55.1124
2023-05-01T10:46:32.180Z,55.8351
2023-05-01T10:47:34.471Z,56.9089
2023-05-01T10:48:36.796Z,58.8787
2023-05-01T10:49:39.121Z,55.3908
2023-05-01T10:50:41.488Z,57.4959
2023-05-01T10:51:43.869Z,56.3402
2023-05-01T10:52:46.151Z,55.3124
2023-05-01T10:53:48.475Z,55.5803
2023-05-01T10:54:50.826Z,53.6035
2023-05-01T10:55:53.147Z,54.7630
2023-05-01T10:56:55.503Z,56.2073
2023-05-01T10:57:57.837Z,54.0957
2023-05-01T10:59:00.166Z,52.8716
2023-05-01T11:00:02.510Z,52.0906
2023-05-01T11:01:04.840Z,52.0353
2023-05-01T11:02:07.198Z,54.0234
2023-05-01T11:03:09.582Z,53.8084
2023-05-01T11:04:11.849Z,53.4923
2023-05-01T11:05:14.254Z,53.7858
2023-05-01T11:06:16.687Z,55.2822
2023-05-01T11:07:19.093Z,54.5279
2023-05-01T11:08:21.215Z,54.3860
2023-05-01T11:09:23.545Z,56.2370
2023-05-01T11:10:25.891Z,54.7079
2023-05-01T11:11:28.212Z,56.1740
2023-05-01T11:12:30.558Z,58.6611
2023-05-01T11:13:32.886Z,59.3330
2023-05-01T11:14:35.242Z,58.8409
2023-05-01T11:15:37.564Z,56.3848
2023-05-01T11:16:40.060Z,54.0725
2023-05-01T11:17:42.662Z,57.5585
2023-05-01T11:18:44.653Z,60.5162
2023-05-01T11:19:46.884Z,59.1532
2023-05-01T11:20:49.216Z,59.1348
2023-05-01T11:21:51.566Z,58.4202
2023-05-01T11:22:54.001Z,57.5263
2023-05-01T11:23:56.228Z,55.7041
2023-05-01T11:24:58.987Z,57.9081
2023-05-01T11:26:00.900Z,59.1298
2023-05-01T11:27:03.245Z,58.0827
2023-05-01T11:28:05.577Z,57.8142
2023-05-01T11:29:07.901Z,58.4875
2023-05-01T11:30:10.234Z,56.7750
2023-05-01T11:31:12.632Z,55.7396
2023-05-01T11:32:15.122Z,54.5495
2023-05-01T11:33:17.306Z,55.8232
2023-05-01T11:34:19.576Z,58.4690
2023-05-01T11:35:21.907Z,57.5644
2023-05-01T11:36:24.277Z,55.7791
2023-05-01T11:37:26.587Z,57.9672
2023-05-01T11:38:28.927Z,59.0173
2023-05-01T11:39:31.243Z,57.9902
2023-05-01T11:40:43.119Z,55.5148
2023-05-01T11:41:45.222Z,54.6507
2023-05-01T11:42:38.281Z,55.1126
2023-05-01T11:43:40.644Z,57.5936
2023-05-01T11:44:42.936Z,58.1787
2023-05-01T11:45:45.313Z,59.1703
2023-05-01T11:46:47.614Z,58.7706
2023-05-01T11:47:50.091Z,57.6225
2023-05-01T11:48:52.271Z,57.9176
2023-05-01T11:49:54.604Z,57.3151
2023-05-01T11:50:56.931Z,55.3998
2023-05-01T11:51:59.330Z,55.3243
2023-05-01T11:53:01.604Z,57.4989
2023-05-01T11:54:03.972Z,56.6815
2023-05-01T11:55:06.291Z,57.5493
2023-05-01T11:56:19.503Z,56.3613
2023-05-01T11:57:10.952Z,56.3486
2023-05-01T11:58:13.283Z,56.9512
2023-05-01T11:59:15.638Z,58.8638
2023-05-01T12:00:17.959Z,59.4083
2023-05-01T12:01:20.291Z,58.5184
2023-05-01T12:02:22.698Z,59.0727
2023-05-01T12:03:25.166Z,59.8805
2023-05-01T12:04:30.683Z,61.3197
2023-05-01T12:05:29.640Z,62.4465
2023-05-01T12:06:31.998Z,61.9691
2023-05-01T12:07:34.307Z,60.9307
2023-05-01T12:08:36.640Z,60.4289
2023-05-01T12:09:38.980Z,58.6684
2023-05-01T12:10:41.343Z,59.1637
2023-05-01T12:11:43.651Z,59.5353
2023-05-01T12:12:45.975Z,60.0755
2023-05-01T12:13:48.310Z,61.0024
2023-05-01T12:14:50.655Z,61.2732
2023-05-01T12:15:52.999Z,58.9587
2023-05-01T12:16:55.373Z,58.2668
2023-05-01T12:17:57.742Z,57.8589
2023-05-01T12:19:00.018Z,57.9051
2023-05-01T12:20:02.327Z,56.6211
2023-05-01T12:21:04.698Z,58.5491
2023-05-01T12:22:07.015Z,58.2275
2023-05-01T12:23:09.338Z,57.1630
2023-05-01T12:24:11.679Z,57.5996
2023-05-01T12:25:14.014Z,59.0509
2023-05-01T12:26:16.389Z,58.2010
2023-05-01T12:27:18.681Z,59.9340
2023-05-01T12:28:21.010Z,56.9729
2023-05-01T12:29:23.362Z,56.5385
2023-05-01T12:30:25.677Z,56.8128
2023-05-01T12:31:28.126Z,56.3635
2023-05-01T12:32:30.402Z,57.0747
2023-05-01T12:33:32.685Z,58.4746